Time;durP1;ratioP1;P1;durP2;ratioP2;P2;SDS_P1;SDS_P2;PMS_P1;PMS_P2;Temp;Humidity;BMP_temperature;BMP_pressure;BME280_temperature;BME280_humidity;BME280_pressure;Samples;Min_cycle;Max_cycle;Signal;HPM_P1;HPM_P2
2023/05/16 00:00:27;;;;;;;33.50;6.67;;;17.40;58.20;;;;;;6210994;23;20187;-89
2023/05/16 00:02:56;;;;;;;27.50;5.90;;;17.40;58.20;;;;;;6212010;23;20207;-89
2023/05/16 00:05:24;;;;;;;36.30;6.47;;;17.40;58.20;;;;;;6212553;23;20168;-89
2023/05/16 00:07:51;;;;;;;29.33;6.10;;;17.40;58.20;;;;;;6211650;23;20257;-89
2023/05/16 00:10:18;;;;;;;41.57;7.10;;;17.40;58.20;;;;;;6210408;23;20573;-89
2023/05/16 00:12:50;;;;;;;38.07;6.37;;;17.40;58.20;;;;;;6210878;23;20551;-89
2023/05/16 00:15:19;;;;;;;39.40;6.33;;;17.30;58.10;;;;;;6212391;23;20164;-89
2023/05/16 00:17:48;;;;;;;44.83;7.03;;;17.30;58.10;;;;;;6212204;23;20203;-89
2023/05/16 00:20:17;;;;;;;23.80;5.57;;;17.30;58.10;;;;;;6211577;23;20165;-88
2023/05/16 00:22:45;;;;;;;41.97;7.07;;;17.30;58.10;;;;;;6210380;23;20172;-89
2023/05/16 00:25:12;;;;;;;31.27;6.00;;;17.30;58.10;;;;;;6210976;23;20177;-89
2023/05/16 00:27:39;;;;;;;37.90;6.77;;;17.30;58.10;;;;;;6211485;23;20222;-88
2023/05/16 00:30:09;;;;;;;33.07;6.33;;;17.30;58.10;;;;;;6216987;23;20189;-92
2023/05/16 00:32:38;;;;;;;33.83;6.80;;;17.20;58.10;;;;;;6225242;23;20169;-92
2023/05/16 00:35:09;;;;;;;33.30;6.50;;;17.20;58.10;;;;;;6223186;23;20164;-91
2023/05/16 00:37:37;;;;;;;41.83;6.90;;;17.20;58.10;;;;;;6219214;23;20752;-91
2023/05/16 00:40:04;;;;;;;49.70;7.27;;;17.20;58.10;;;;;;6219823;23;20182;-91
2023/05/16 00:42:32;;;;;;;38.03;6.47;;;17.20;58.10;;;;;;6218384;23;20265;-93
2023/05/16 00:44:59;;;;;;;47.03;7.03;;;17.20;58.10;;;;;;6213736;23;20198;-88
2023/05/16 00:47:26;;;;;;;35.43;6.40;;;17.20;58.10;;;;;;6210958;23;20203;-89
2023/05/16 00:49:54;;;;;;;31.03;5.90;;;17.20;58.10;;;;;;6210686;23;20597;-88
2023/05/16 00:52:27;;;;;;;31.30;5.80;;;17.20;58.10;;;;;;6226684;23;20168;-90
2023/05/16 00:54:55;;;;;;;33.57;6.27;;;17.20;58.10;;;;;;6228889;23;20173;-90
2023/05/16 00:57:23;;;;;;;24.97;5.13;;;17.10;58.00;;;;;;6228853;23;20198;-90
2023/05/16 00:59:54;;;;;;;20.97;5.63;;;17.10;58.00;;;;;;6229795;23;20197;-90
2023/05/16 01:02:21;;;;;;;41.27;7.50;;;17.20;58.10;;;;;;6227567;23;20172;-90
2023/05/16 01:04:50;;;;;;;34.13;6.23;;;17.10;58.00;;;;;;6209697;23;20187;-89
2023/05/16 01:07:20;;;;;;;41.30;6.77;;;17.10;58.00;;;;;;6220023;23;20896;-92
2023/05/16 01:09:50;;;;;;;49.70;7.90;;;17.10;58.00;;;;;;6225467;23;20223;-94
2023/05/16 01:12:26;;;;;;;32.03;6.10;;;17.10;58.00;;;;;;6228476;23;20175;-91
2023/05/16 01:15:08;;;;;;;35.23;6.40;;;17.10;58.00;;;;;;6230391;23;20619;-95
2023/05/16 01:17:46;;;;;;;41.07;6.90;;;17.10;58.00;;;;;;6233206;23;20219;-91
2023/05/16 01:20:28;;;;;;;23.13;5.00;;;17.10;58.00;;;;;;6236825;23;20168;-89
2023/05/16 01:23:07;;;;;;;28.07;5.83;;;17.00;58.00;;;;;;6238875;23;20186;-89
2023/05/16 01:25:56;;;;;;;44.37;7.47;;;17.00;57.90;;;;;;6237864;23;20175;-89
2023/05/16 01:28:25;;;;;;;22.87;5.00;;;17.00;58.00;;;;;;6239426;23;20185;-88
2023/05/16 01:30:52;;;;;;;20.50;4.83;;;17.00;58.00;;;;;;6223296;23;20179;-88
2023/05/16 01:33:23;;;;;;;17.70;5.17;;;17.00;58.00;;;;;;6216402;23;20586;-88
2023/05/16 01:36:10;;;;;;;20.33;4.90;;;17.00;58.00;;;;;;6217707;23;20556;-88
2023/05/16 01:38:42;;;;;;;37.10;6.67;;;17.00;58.00;;;;;;6214190;23;20845;-87
2023/05/16 01:41:13;;;;;;;31.03;6.23;;;17.00;58.00;;;;;;6213191;23;20192;-89
2023/05/16 01:43:44;;;;;;;30.73;6.53;;;17.00;58.00;;;;;;6212704;23;20174;-89
2023/05/16 01:46:15;;;;;;;33.60;6.40;;;17.00;58.00;;;;;;6212796;23;20213;-89
2023/05/16 01:48:51;;;;;;;20.73;4.77;;;17.00;58.00;;;;;;6214434;23;20223;-91
2023/05/16 01:51:21;;;;;;;35.67;6.33;;;17.00;58.00;;;;;;6212051;23;20219;-89
2023/05/16 01:53:52;;;;;;;31.20;5.93;;;16.90;58.00;;;;;;6212214;23;20199;-89
2023/05/16 01:56:20;;;;;;;32.73;6.00;;;16.90;58.00;;;;;;6212687;23;20241;-90
2023/05/16 01:58:51;;;;;;;40.63;6.83;;;16.90;58.00;;;;;;6212304;23;20168;-88
2023/05/16 02:01:18;;;;;;;30.57;6.33;;;16.90;58.00;;;;;;6210575;23;20169;-89
2023/05/16 02:03:45;;;;;;;34.17;6.17;;;16.90;58.00;;;;;;6213332;23;20170;-88
2023/05/16 02:06:12;;;;;;;36.50;6.23;;;16.90;58.00;;;;;;6212016;23;20168;-88
2023/05/16 02:08:39;;;;;;;26.07;5.63;;;16.90;58.00;;;;;;6212353;23;20481;-88
2023/05/16 02:11:06;;;;;;;35.47;5.90;;;16.80;57.90;;;;;;6211946;23;20181;-88
2023/05/16 02:13:33;;;;;;;44.83;7.43;;;16.80;57.90;;;;;;6212187;23;20222;-88
2023/05/16 02:16:01;;;;;;;29.50;5.53;;;16.80;57.90;;;;;;6211646;23;20671;-89
2023/05/16 02:18:29;;;;;;;56.20;7.83;;;16.80;57.90;;;;;;6212774;23;20190;-88
2023/05/16 02:20:56;;;;;;;26.70;5.97;;;16.80;57.90;;;;;;6214301;23;20253;-89
2023/05/16 02:23:25;;;;;;;32.10;5.77;;;16.80;57.90;;;;;;6213431;23;20170;-88
2023/05/16 02:25:53;;;;;;;30.40;6.03;;;16.80;57.90;;;;;;6213697;23;20178;-89
2023/05/16 02:28:20;;;;;;;41.47;6.67;;;16.70;57.80;;;;;;6222020;23;20456;-88
2023/05/16 02:30:57;;;;;;;24.90;5.43;;;16.80;57.90;;;;;;6221959;23;20169;-89
2023/05/16 02:33:27;;;;;;;32.43;6.13;;;16.80;57.90;;;;;;6214673;23;20169;-89
2023/05/16 02:35:54;;;;;;;32.87;6.30;;;16.80;58.00;;;;;;6213705;23;20220;-90
2023/05/16 02:38:21;;;;;;;35.23;6.23;;;16.80;57.90;;;;;;6213021;23;20189;-89
2023/05/16 02:40:48;;;;;;;25.13;5.53;;;16.70;57.90;;;;;;6212337;23;20637;-89
2023/05/16 02:43:15;;;;;;;27.73;5.63;;;16.70;57.90;;;;;;6211796;23;20175;-88
2023/05/16 02:45:44;;;;;;;30.70;6.17;;;16.70;57.90;;;;;;6213103;23;20223;-88
2023/05/16 02:48:11;;;;;;;28.97;5.63;;;16.70;57.90;;;;;;6214208;23;20575;-88
2023/05/16 02:50:41;;;;;;;35.40;5.93;;;16.70;57.90;;;;;;6213056;23;20554;-88
2023/05/16 02:53:08;;;;;;;25.57;5.33;;;16.70;57.90;;;;;;6212620;23;20179;-88
2023/05/16 02:55:35;;;;;;;30.30;5.67;;;16.70;57.90;;;;;;6213599;23;20209;-88
2023/05/16 02:58:08;;;;;;;28.93;5.77;;;16.60;57.80;;;;;;6213857;23;20226;-88
2023/05/16 03:00:37;;;;;;;28.67;5.83;;;16.60;57.80;;;;;;6212385;23;20213;-88
2023/05/16 03:03:04;;;;;;;24.97;5.20;;;16.60;57.80;;;;;;6212040;23;20227;-89
2023/05/16 03:05:31;;;;;;;26.80;5.60;;;16.60;57.80;;;;;;6212728;23;20561;-88
2023/05/16 03:08:03;;;;;;;36.47;5.93;;;16.60;57.80;;;;;;6211529;23;20195;-88
2023/05/16 03:10:30;;;;;;;37.17;6.17;;;16.60;57.80;;;;;;6211811;23;20177;-88
2023/05/16 03:12:57;;;;;;;31.00;6.07;;;16.60;57.90;;;;;;6211698;23;20287;-89
2023/05/16 03:15:24;;;;;;;28.90;5.63;;;16.60;57.90;;;;;;6213097;23;20173;-88
2023/05/16 03:17:57;;;;;;;32.37;5.90;;;16.60;57.90;;;;;;6211260;23;20210;-89
2023/05/16 03:20:25;;;;;;;51.90;7.50;;;16.60;57.80;;;;;;6212140;23;20168;-89
2023/05/16 03:22:52;;;;;;;40.17;6.33;;;16.50;57.80;;;;;;6208903;23;20178;-89
2023/05/16 03:25:21;;;;;;;37.53;7.20;;;16.50;57.80;;;;;;6209013;23;20223;-89
2023/05/16 03:27:48;;;;;;;41.73;6.47;;;16.50;57.80;;;;;;6209207;23;20679;-90
2023/05/16 03:30:16;;;;;;;28.77;6.13;;;16.50;57.80;;;;;;6210187;23;20727;-88
2023/05/16 03:32:45;;;;;;;57.10;8.10;;;16.50;57.80;;;;;;6210088;23;20243;-88
2023/05/16 03:35:12;;;;;;;38.17;6.80;;;16.50;57.80;;;;;;6210349;23;20650;-88
2023/05/16 03:37:39;;;;;;;36.67;6.40;;;16.50;57.80;;;;;;6211216;23;20189;-89
2023/05/16 03:40:11;;;;;;;47.80;7.23;;;16.50;57.80;;;;;;6211225;23;20165;-89
2023/05/16 03:42:40;;;;;;;39.67;6.73;;;16.50;57.80;;;;;;6210481;23;20191;-89
2023/05/16 03:45:08;;;;;;;44.23;6.80;;;16.40;57.70;;;;;;6211587;23;20489;-90
2023/05/16 03:47:35;;;;;;;43.37;6.83;;;16.50;57.90;;;;;;6211021;23;20181;-89
2023/05/16 03:50:03;;;;;;;36.93;6.33;;;16.50;57.80;;;;;;6210986;23;20258;-89
2023/05/16 03:52:30;;;;;;;38.80;6.63;;;16.40;57.70;;;;;;6212211;23;20729;-89
2023/05/16 03:55:00;;;;;;;33.43;6.03;;;16.40;57.70;;;;;;6210908;23;20563;-88
2023/05/16 03:57:31;;;;;;;27.57;5.43;;;16.40;57.80;;;;;;6210819;23;20238;-88
2023/05/16 04:00:05;;;;;;;28.00;5.80;;;16.40;57.80;;;;;;6212422;23;20165;-89
2023/05/16 04:02:32;;;;;;;33.10;6.03;;;16.40;57.80;;;;;;6211756;23;20199;-89
2023/05/16 04:05:00;;;;;;;44.53;7.07;;;16.40;57.80;;;;;;6209918;23;20210;-88
2023/05/16 04:07:28;;;;;;;28.93;6.27;;;16.40;57.80;;;;;;6210622;23;20276;-88
2023/05/16 04:09:57;;;;;;;34.03;6.23;;;16.40;57.80;;;;;;6211062;23;20176;-89
2023/05/16 04:12:26;;;;;;;30.60;5.93;;;16.40;57.80;;;;;;6213371;23;20171;-89
2023/05/16 04:14:56;;;;;;;25.17;5.17;;;16.40;57.80;;;;;;6213653;23;20192;-89
2023/05/16 04:17:28;;;;;;;29.80;6.07;;;16.40;57.80;;;;;;6213635;23;20209;-88
2023/05/16 04:20:03;;;;;;;23.10;5.20;;;16.40;57.80;;;;;;6218553;23;20202;-90
2023/05/16 04:22:30;;;;;;;30.67;5.83;;;16.30;57.70;;;;;;6231431;23;20190;-89
2023/05/16 04:25:00;;;;;;;26.07;5.07;;;16.30;57.70;;;;;;6232103;23;20177;-88
2023/05/16 04:27:30;;;;;;;19.37;5.40;;;16.30;57.80;;;;;;6236117;23;20168;-90
2023/05/16 04:30:01;;;;;;;24.57;4.93;;;16.30;57.70;;;;;;6238428;23;20161;-90
2023/05/16 04:32:35;;;;;;;16.27;4.60;;;16.30;57.70;;;;;;6239977;23;20168;-92
2023/05/16 04:35:07;;;;;;;45.53;7.30;;;16.30;57.70;;;;;;6240620;23;20169;-88
2023/05/16 04:37:37;;;;;;;25.60;5.80;;;16.30;57.80;;;;;;6239552;23;20210;-89
2023/05/16 04:40:06;;;;;;;28.30;5.43;;;16.30;57.70;;;;;;6238733;23;20166;-90
2023/05/16 04:42:37;;;;;;;22.83;5.07;;;16.30;57.80;;;;;;6239322;23;20253;-92
2023/05/16 04:45:13;;;;;;;30.63;5.70;;;16.30;57.80;;;;;;6234836;23;20200;-89
2023/05/16 04:47:42;;;;;;;32.67;5.73;;;16.20;57.70;;;;;;6211192;23;20242;-93
2023/05/16 04:50:10;;;;;;;35.10;5.90;;;16.30;57.80;;;;;;6210392;23;20625;-94
2023/05/16 04:52:37;;;;;;;55.67;7.80;;;16.20;57.70;;;;;;6209146;23;20203;-94
2023/05/16 04:55:05;;;;;;;29.47;5.80;;;16.20;57.70;;;;;;6210754;23;20164;-94
2023/05/16 04:57:34;;;;;;;35.00;6.73;;;16.20;57.70;;;;;;6210589;23;20506;-94
2023/05/16 05:00:04;;;;;;;33.67;6.27;;;16.20;57.80;;;;;;6211826;23;20171;-95
2023/05/16 05:02:31;;;;;;;37.83;6.93;;;16.20;57.80;;;;;;6192169;23;20195;-94
2023/05/16 05:04:59;;;;;;;39.27;6.93;;;16.20;57.80;;;;;;6213579;23;20233;-96
2023/05/16 05:07:28;;;;;;;29.17;6.03;;;16.20;57.80;;;;;;6210566;23;20202;-93
2023/05/16 05:09:55;;;;;;;38.07;6.57;;;16.20;57.80;;;;;;6210382;23;20171;-94
2023/05/16 05:12:22;;;;;;;31.20;6.20;;;16.20;57.80;;;;;;6211367;23;20170;-92
2023/05/16 05:14:49;;;;;;;42.83;6.70;;;16.20;57.80;;;;;;6210356;23;20168;-91
2023/05/16 05:17:17;;;;;;;35.90;6.37;;;16.20;57.80;;;;;;6212184;23;20168;-89
2023/05/16 05:19:44;;;;;;;36.37;6.40;;;16.20;57.80;;;;;;6211953;23;20200;-90
2023/05/16 05:22:12;;;;;;;53.30;8.00;;;16.20;57.80;;;;;;6209055;23;20176;-91
2023/05/16 05:24:39;;;;;;;35.40;6.60;;;16.20;57.80;;;;;;6209829;23;20202;-93
2023/05/16 05:27:06;;;;;;;40.80;6.93;;;16.20;57.80;;;;;;6210980;23;20192;-89
2023/05/16 05:29:33;;;;;;;45.77;7.30;;;16.20;57.80;;;;;;6211492;23;20485;-89
2023/05/16 05:32:00;;;;;;;35.83;6.37;;;16.10;57.70;;;;;;6211531;23;20557;-91
2023/05/16 05:34:27;;;;;;;35.33;6.43;;;16.20;57.80;;;;;;6212002;23;20511;-90
2023/05/16 05:36:55;;;;;;;56.07;8.07;;;16.20;57.80;;;;;;6210707;23;20211;-89
2023/05/16 05:39:24;;;;;;;32.47;6.47;;;16.20;57.90;;;;;;6211873;23;20206;-89
2023/05/16 05:41:51;;;;;;;49.40;7.70;;;16.20;57.80;;;;;;6210490;23;20240;-89
2023/05/16 05:44:18;;;;;;;36.40;6.57;;;16.20;57.90;;;;;;6210973;23;20253;-89
2023/05/16 05:46:46;;;;;;;40.83;6.70;;;16.20;57.90;;;;;;6207982;23;20208;-88
2023/05/16 05:49:13;;;;;;;40.37;7.07;;;16.20;57.90;;;;;;6211646;23;20164;-92
2023/05/16 05:51:40;;;;;;;42.07;7.17;;;16.20;57.90;;;;;;6211163;23;20203;-89
2023/05/16 05:54:07;;;;;;;38.27;6.53;;;16.20;57.90;;;;;;6210641;23;20205;-89
2023/05/16 05:56:35;;;;;;;46.43;7.10;;;16.20;57.90;;;;;;6210264;23;20276;-89
2023/05/16 05:59:02;;;;;;;36.43;6.20;;;16.20;57.90;;;;;;6230531;23;20205;-88
2023/05/16 06:01:29;;;;;;;38.67;6.33;;;16.20;57.90;;;;;;6233025;23;20161;-90
2023/05/16 06:03:56;;;;;;;34.67;6.50;;;16.20;57.90;;;;;;6214739;23;20176;-91
2023/05/16 06:06:24;;;;;;;34.93;5.87;;;16.20;57.90;;;;;;6212507;23;20169;-90
2023/05/16 06:08:53;;;;;;;38.40;6.47;;;16.20;57.90;;;;;;6211417;23;20176;-90
2023/05/16 06:11:20;;;;;;;31.97;6.07;;;16.20;57.90;;;;;;6212412;23;20209;-89
2023/05/16 06:13:48;;;;;;;33.20;5.93;;;16.20;58.00;;;;;;6212127;23;20169;-89
2023/05/16 06:16:16;;;;;;;31.70;5.57;;;16.20;58.00;;;;;;6212324;23;20196;-89
2023/05/16 06:18:44;;;;;;;33.83;6.00;;;16.20;58.00;;;;;;6212816;23;20193;-89
2023/05/16 06:21:11;;;;;;;36.73;6.60;;;16.20;58.00;;;;;;6186201;23;20248;-90
2023/05/16 06:23:38;;;;;;;40.20;6.70;;;16.20;58.00;;;;;;6213195;23;20540;-89
2023/05/16 06:26:08;;;;;;;33.43;6.00;;;16.20;58.00;;;;;;6214802;23;20169;-89
2023/05/16 06:28:35;;;;;;;35.87;6.60;;;16.20;58.00;;;;;;6212349;23;20201;-89
2023/05/16 06:31:06;;;;;;;23.30;5.83;;;16.20;58.00;;;;;;6213807;23;20560;-88
2023/05/16 06:33:33;;;;;;;30.07;5.60;;;16.30;58.10;;;;;;6212306;23;20203;-90
2023/05/16 06:36:03;;;;;;;27.77;5.77;;;16.20;58.00;;;;;;6211702;23;20247;-89
2023/05/16 06:38:30;;;;;;;41.03;6.80;;;16.30;58.10;;;;;;6212041;23;20256;-93
2023/05/16 06:40:58;;;;;;;28.13;5.43;;;16.30;58.10;;;;;;6214411;23;20200;-90
2023/05/16 06:43:26;;;;;;;43.97;6.50;;;16.30;58.10;;;;;;6212086;23;20190;-90
2023/05/16 06:45:53;;;;;;;41.90;6.63;;;16.30;58.10;;;;;;6218213;23;20171;-90
2023/05/16 06:48:21;;;;;;;31.67;6.10;;;16.30;58.10;;;;;;6214951;23;20298;-91
2023/05/16 06:50:50;;;;;;;41.17;6.47;;;16.30;58.10;;;;;;6212533;23;20200;-92
2023/05/16 06:53:19;;;;;;;29.27;5.90;;;16.30;58.10;;;;;;6220216;23;20208;-90
2023/05/16 06:55:47;;;;;;;37.63;6.93;;;16.40;58.20;;;;;;6223978;23;20253;-91
2023/05/16 06:58:16;;;;;;;41.60;6.87;;;16.40;58.20;;;;;;6217926;23;20167;-93
2023/05/16 07:00:44;;;;;;;37.87;7.13;;;16.30;58.20;;;;;;6224543;23;20182;-93
2023/05/16 07:03:11;;;;;;;41.13;7.90;;;16.40;58.20;;;;;;6222884;23;20174;-95
2023/05/16 07:05:40;;;;;;;51.67;8.17;;;16.40;58.20;;;;;;6225242;23;20263;-92
2023/05/16 07:08:11;;;;;;;41.97;7.00;;;16.40;58.30;;;;;;6215404;23;20694;-88
2023/05/16 07:10:38;;;;;;;29.60;6.30;;;16.40;58.30;;;;;;6212644;23;20180;-92
2023/05/16 07:13:05;;;;;;;34.47;6.63;;;16.50;58.40;;;;;;6216318;23;20618;-90
2023/05/16 07:15:33;;;;;;;49.53;7.57;;;16.50;58.40;;;;;;6210935;23;20168;-90
2023/05/16 07:18:00;;;;;;;34.13;6.83;;;16.50;58.40;;;;;;6213475;23;20224;-91
2023/05/16 07:20:27;;;;;;;41.40;7.47;;;16.50;58.50;;;;;;6210954;23;20194;-92
2023/05/16 07:22:58;;;;;;;40.23;7.30;;;16.50;58.50;;;;;;6213478;23;20221;-90
2023/05/16 07:25:32;;;;;;;36.00;6.90;;;16.50;58.40;;;;;;6211769;23;20198;-91
2023/05/16 07:27:59;;;;;;;34.83;6.37;;;16.60;58.60;;;;;;6212747;23;20172;-90
2023/05/16 07:30:28;;;;;;;31.97;6.53;;;16.60;58.50;;;;;;6212089;23;20220;-90
2023/05/16 07:32:55;;;;;;;55.10;8.17;;;16.60;58.50;;;;;;6215225;23;20203;-90
2023/05/16 07:35:22;;;;;;;40.23;6.77;;;16.60;58.50;;;;;;6221885;23;20165;-92
2023/05/16 07:37:50;;;;;;;55.37;7.87;;;16.60;58.50;;;;;;6191618;23;20259;-90
2023/05/16 07:40:20;;;;;;;29.77;5.50;;;16.70;58.50;;;;;;6221160;23;20203;-91
2023/05/16 07:42:47;;;;;;;41.07;6.43;;;16.70;58.50;;;;;;6212258;23;20191;-90
2023/05/16 07:45:15;;;;;;;35.40;6.27;;;16.70;58.50;;;;;;6211316;23;20238;-90
2023/05/16 07:47:43;;;;;;;31.90;6.13;;;16.70;58.50;;;;;;6212883;23;20174;-90
2023/05/16 07:50:11;;;;;;;33.03;6.60;;;16.80;58.60;;;;;;6212481;23;20237;-90
2023/05/16 07:52:40;;;;;;;35.57;6.00;;;16.80;58.60;;;;;;6214238;23;20169;-93
2023/05/16 07:55:08;;;;;;;34.40;6.00;;;16.80;58.50;;;;;;6220978;23;20541;-94
2023/05/16 07:57:38;;;;;;;40.40;6.50;;;16.80;58.60;;;;;;6221088;23;20180;-92
2023/05/16 08:00:07;;;;;;;44.37;7.10;;;16.80;58.50;;;;;;6217972;23;20288;-95
2023/05/16 08:02:35;;;;;;;39.57;7.23;;;16.90;58.60;;;;;;6214757;23;20176;-94
2023/05/16 08:05:02;;;;;;;19.37;5.57;;;16.90;58.60;;;;;;6215032;23;20225;-90
2023/05/16 08:07:30;;;;;;;28.27;6.33;;;16.90;58.60;;;;;;6211936;23;20196;-90
2023/05/16 08:09:57;;;;;;;34.30;5.97;;;17.00;58.60;;;;;;6215407;23;20201;-95
2023/05/16 08:12:25;;;;;;;31.40;6.13;;;16.90;58.60;;;;;;6214257;23;20266;-93
2023/05/16 08:14:54;;;;;;;38.83;6.60;;;17.00;58.60;;;;;;6210854;23;20509;-91
2023/05/16 08:17:21;;;;;;;36.73;6.20;;;17.00;58.60;;;;;;6210508;23;20713;-89
2023/05/16 08:19:48;;;;;;;42.07;7.33;;;17.00;58.60;;;;;;6212312;23;20198;-91
2023/05/16 08:22:18;;;;;;;38.50;6.77;;;17.00;58.60;;;;;;6213034;23;20602;-94
2023/05/16 08:24:45;;;;;;;39.17;6.83;;;17.10;58.70;;;;;;6213634;23;20168;-91
2023/05/16 08:27:13;;;;;;;36.63;5.90;;;17.10;58.70;;;;;;6213452;23;20543;-91
2023/05/16 08:29:40;;;;;;;37.23;6.23;;;17.10;58.60;;;;;;6213404;23;20175;-90
2023/05/16 08:32:10;;;;;;;44.33;7.00;;;17.10;58.70;;;;;;6211311;23;20204;-94
2023/05/16 08:34:37;;;;;;;38.20;7.03;;;17.20;58.80;;;;;;6211538;23;20225;-91
2023/05/16 08:37:04;;;;;;;36.67;6.53;;;17.20;58.80;;;;;;6210221;23;20731;-91
2023/05/16 08:39:31;;;;;;;37.13;6.50;;;17.20;58.70;;;;;;6211089;23;20237;-90
2023/05/16 08:41:58;;;;;;;37.40;6.47;;;17.20;58.70;;;;;;6210802;23;20694;-91
2023/05/16 08:44:28;;;;;;;40.27;6.60;;;17.30;58.80;;;;;;6210924;23;20174;-92
2023/05/16 08:46:56;;;;;;;57.63;7.97;;;17.30;58.80;;;;;;6214152;23;20178;-90
2023/05/16 08:49:27;;;;;;;45.97;7.27;;;17.30;58.80;;;;;;6212136;23;20704;-90
2023/05/16 08:51:58;;;;;;;41.90;6.83;;;17.30;58.80;;;;;;6212625;23;20175;-94
2023/05/16 08:54:26;;;;;;;43.50;6.47;;;17.30;58.80;;;;;;6210315;23;20238;-90
2023/05/16 08:56:54;;;;;;;36.33;6.43;;;17.40;58.90;;;;;;6209180;23;20282;-90
2023/05/16 08:59:21;;;;;;;39.90;6.17;;;17.40;58.90;;;;;;6208690;23;20703;-90
2023/05/16 09:01:48;;;;;;;32.13;6.13;;;17.40;58.90;;;;;;6208094;23;20171;-90
2023/05/16 09:04:16;;;;;;;31.23;6.10;;;17.50;59.00;;;;;;6209775;23;20170;-90
2023/05/16 09:06:45;;;;;;;36.87;6.27;;;17.50;59.00;;;;;;6208947;23;20199;-89
2023/05/16 09:09:12;;;;;;;33.80;6.27;;;17.50;59.00;;;;;;6211166;23;20221;-91
2023/05/16 09:11:39;;;;;;;53.63;7.70;;;17.50;59.00;;;;;;6210946;23;20635;-90
2023/05/16 09:14:07;;;;;;;33.87;5.93;;;17.50;59.00;;;;;;6211676;23;20201;-89
2023/05/16 09:16:34;;;;;;;40.63;6.43;;;17.60;59.10;;;;;;6210839;23;20232;-90
2023/05/16 09:19:03;;;;;;;38.27;6.40;;;17.60;59.10;;;;;;6210714;23;20340;-93
2023/05/16 09:21:31;;;;;;;40.97;6.67;;;17.70;59.10;;;;;;6211271;23;20166;-96
2023/05/16 09:24:05;;;;;;;38.83;6.47;;;17.70;59.10;;;;;;6210206;23;20179;-92
2023/05/16 09:26:33;;;;;;;47.90;7.07;;;17.70;59.20;;;;;;6210241;23;20257;-95
2023/05/16 09:29:01;;;;;;;47.77;6.83;;;17.70;59.10;;;;;;6212056;23;20168;-90
2023/05/16 09:31:35;;;;;;;42.80;6.50;;;17.80;59.20;;;;;;6223963;23;20172;-91
2023/05/16 09:34:02;;;;;;;42.23;6.60;;;17.80;59.20;;;;;;6234681;23;20163;-92
2023/05/16 09:36:31;;;;;;;41.93;6.67;;;17.80;59.20;;;;;;6221858;23;20164;-91
2023/05/16 09:38:58;;;;;;;43.97;7.23;;;17.90;59.30;;;;;;6211070;23;20198;-89
2023/05/16 09:41:26;;;;;;;33.13;6.30;;;17.90;59.90;;;;;;6211822;23;20240;-90
2023/05/16 09:43:56;;;;;;;24.93;4.97;;;18.00;59.30;;;;;;6212543;23;20189;-89
2023/05/16 09:46:27;;;;;;;30.63;5.67;;;18.00;59.40;;;;;;6211934;23;20210;-89
2023/05/16 09:48:55;;;;;;;37.57;6.23;;;18.10;59.40;;;;;;6210707;23;20168;-89
2023/05/16 09:51:22;;;;;;;42.63;7.03;;;18.10;59.40;;;;;;6209921;23;20186;-90
2023/05/16 09:53:50;;;;;;;37.53;6.10;;;18.10;59.40;;;;;;6209448;23;20211;-88
2023/05/16 09:56:17;;;;;;;34.87;5.80;;;18.10;59.40;;;;;;6209258;23;20251;-89
2023/05/16 09:58:46;;;;;;;44.43;6.87;;;18.20;59.50;;;;;;6209679;23;20203;-89
2023/05/16 10:01:13;;;;;;;35.00;6.00;;;18.20;59.50;;;;;;6209834;23;20208;-90
2023/05/16 10:03:42;;;;;;;36.43;6.03;;;18.20;59.40;;;;;;6209449;23;20236;-90
2023/05/16 10:06:10;;;;;;;46.43;7.23;;;18.30;59.50;;;;;;6209394;23;20204;-89
2023/05/16 10:08:38;;;;;;;37.87;6.10;;;18.40;59.60;;;;;;6210538;23;20173;-88
2023/05/16 10:11:06;;;;;;;40.80;6.30;;;18.30;59.50;;;;;;6210396;23;20175;-89
2023/05/16 10:13:36;;;;;;;39.50;6.30;;;18.40;59.60;;;;;;6211391;23;20607;-90
2023/05/16 10:16:11;;;;;;;51.47;6.93;;;18.40;59.60;;;;;;6211921;23;20477;-90
2023/05/16 10:18:39;;;;;;;41.50;6.77;;;18.50;59.70;;;;;;6212050;23;20203;-96
2023/05/16 10:21:09;;;;;;;27.03;5.13;;;18.50;59.60;;;;;;6215930;23;20609;-88
2023/05/16 10:23:41;;;;;;;83.60;9.50;;;18.50;59.60;;;;;;6218590;23;20226;-89
2023/05/16 10:26:09;;;;;;;51.77;7.47;;;18.60;59.60;;;;;;6214990;23;20695;-91
2023/05/16 10:28:36;;;;;;;29.37;5.83;;;18.60;58.90;;;;;;6214695;23;20168;-92
2023/05/16 10:31:04;;;;;;;31.20;6.07;;;18.60;58.40;;;;;;6212060;23;20248;-89
2023/05/16 10:33:33;;;;;;;23.73;5.37;;;18.70;58.70;;;;;;6210500;23;20169;-89
2023/05/16 10:36:00;;;;;;;27.37;5.53;;;18.70;58.90;;;;;;6212110;23;20616;-89
2023/05/16 10:38:28;;;;;;;21.33;4.60;;;18.80;59.00;;;;;;6214136;23;20199;-88
2023/05/16 10:40:56;;;;;;;33.43;6.17;;;18.80;59.10;;;;;;6213879;23;20203;-96
2023/05/16 10:43:29;;;;;;;51.00;7.30;;;18.80;59.20;;;;;;6213424;23;20176;-93
2023/05/16 10:46:04;;;;;;;34.27;6.00;;;18.90;59.30;;;;;;6214012;23;20176;-90
2023/05/16 10:48:37;;;;;;;44.97;6.90;;;18.90;59.40;;;;;;6210692;23;20171;-88
2023/05/16 10:51:26;;;;;;;26.87;5.23;;;19.00;59.40;;;;;;6211419;23;20195;-90
2023/05/16 10:53:54;;;;;;;38.30;6.20;;;19.00;59.40;;;;;;6211200;23;20549;-89
2023/05/16 10:56:23;;;;;;;23.40;4.97;;;19.10;59.40;;;;;;6211019;23;20206;-88
2023/05/16 10:58:52;;;;;;;31.90;6.13;;;19.10;59.40;;;;;;6210465;23;20164;-87
2023/05/16 11:01:24;;;;;;;24.73;5.03;;;19.10;59.40;;;;;;6210889;23;20271;-87
2023/05/16 11:04:04;;;;;;;24.73;4.93;;;19.20;59.50;;;;;;6211532;23;20171;-88
2023/05/16 11:06:33;;;;;;;29.53;5.47;;;19.20;59.50;;;;;;6211480;23;20228;-91
2023/05/16 11:09:22;;;;;;;27.70;5.43;;;19.20;59.40;;;;;;6212083;23;20164;-96
2023/05/16 11:11:58;;;;;;;28.77;5.20;;;19.30;59.60;;;;;;6211253;23;20183;-89
2023/05/16 11:14:28;;;;;;;38.10;6.20;;;19.30;59.50;;;;;;6211949;23;20581;-95
2023/05/16 11:17:01;;;;;;;30.87;5.93;;;19.40;59.50;;;;;;6210990;23;20218;-88
2023/05/16 11:19:32;;;;;;;20.10;4.80;;;19.40;59.50;;;;;;6209202;23;20203;-87
2023/05/16 11:22:10;;;;;;;21.93;5.13;;;19.50;59.60;;;;;;6211454;23;20172;-87
2023/05/16 11:24:38;;;;;;;38.57;5.80;;;19.40;59.50;;;;;;6209559;23;20172;-87
2023/05/16 11:27:06;;;;;;;34.23;5.67;;;19.50;59.60;;;;;;6211216;23;20165;-88
2023/05/16 11:29:36;;;;;;;29.73;5.20;;;19.60;59.70;;;;;;6210845;23;20168;-87
2023/05/16 11:32:04;;;;;;;27.67;5.47;;;19.60;59.70;;;;;;6214683;23;20168;-94
2023/05/16 11:34:37;;;;;;;53.37;7.27;;;19.60;59.70;;;;;;6212559;23;20164;-89
2023/05/16 11:37:10;;;;;;;34.00;5.73;;;19.70;59.70;;;;;;6211871;23;20168;-95
2023/05/16 11:39:37;;;;;;;44.10;6.63;;;19.70;59.70;;;;;;6209798;23;20482;-88
2023/05/16 11:42:04;;;;;;;29.30;5.40;;;19.70;59.70;;;;;;6210936;23;20219;-94
2023/05/16 11:44:31;;;;;;;62.50;8.13;;;19.80;59.70;;;;;;6210101;23;20195;-95
2023/05/16 11:46:59;;;;;;;32.13;5.73;;;19.80;59.70;;;;;;6211201;23;20203;-87
2023/05/16 11:49:29;;;;;;;39.20;5.87;;;19.90;59.80;;;;;;6209974;23;20644;-95
2023/05/16 11:51:58;;;;;;;38.60;5.70;;;19.90;59.70;;;;;;6212174;23;20592;-96
2023/05/16 11:54:25;;;;;;;30.00;5.47;;;19.90;59.70;;;;;;6210931;23;20611;-89
2023/05/16 11:56:53;;;;;;;31.57;5.53;;;20.00;59.80;;;;;;6210709;23;20167;-87
2023/05/16 11:59:20;;;;;;;30.90;5.33;;;20.00;59.80;;;;;;6209996;23;20203;-88
2023/05/16 12:01:49;;;;;;;33.03;5.77;;;20.00;59.70;;;;;;6210346;23;20232;-88
2023/05/16 12:04:18;;;;;;;35.63;6.17;;;20.10;59.80;;;;;;6209899;23;20680;-88
2023/05/16 12:07:00;;;;;;;27.13;5.07;;;20.10;59.80;;;;;;6209386;23;20211;-91
2023/05/16 12:09:27;;;;;;;29.73;5.47;;;20.10;59.80;;;;;;6209928;23;20166;-87
2023/05/16 12:11:54;;;;;;;33.83;5.77;;;20.20;59.80;;;;;;6210211;23;20684;-87
2023/05/16 12:14:22;;;;;;;33.93;5.63;;;20.20;59.80;;;;;;6210047;23;20169;-89
2023/05/16 12:16:49;;;;;;;33.20;5.80;;;20.20;59.80;;;;;;6209889;23;20553;-88
2023/05/16 12:19:16;;;;;;;34.07;6.07;;;20.30;59.80;;;;;;6210384;23;20271;-91
2023/05/16 12:21:43;;;;;;;39.13;6.13;;;20.30;59.80;;;;;;6210556;23;20261;-88
2023/05/16 12:24:12;;;;;;;36.60;5.83;;;20.30;59.80;;;;;;6209190;23;20196;-87
2023/05/16 12:26:41;;;;;;;32.47;5.67;;;20.40;59.80;;;;;;6210153;23;20161;-88
2023/05/16 12:29:10;;;;;;;33.63;5.40;;;20.40;59.80;;;;;;6209379;23;20177;-87
2023/05/16 12:31:39;;;;;;;34.90;5.83;;;20.40;59.70;;;;;;6208461;23;20203;-88
2023/05/16 12:34:15;;;;;;;34.83;5.93;;;20.40;59.70;;;;;;6207848;23;20588;-87
2023/05/16 12:36:43;;;;;;;19.17;4.60;;;20.50;59.80;;;;;;6209542;23;20648;-89
2023/05/16 12:39:14;;;;;;;42.40;6.37;;;20.50;59.70;;;;;;6208760;23;20239;-87
2023/05/16 12:41:42;;;;;;;42.20;6.80;;;20.60;59.80;;;;;;6208933;23;20254;-89
2023/05/16 12:44:13;;;;;;;32.00;5.77;;;20.60;59.80;;;;;;6208818;23;20180;-89